createdAt,value
2022-12-08T00:06:10.123Z,3.30
2022-12-08T00:11:41.541Z,3.40
2022-12-08T00:21:49.336Z,3.20
2022-12-08T00:24:19.603Z,3.30
2022-12-08T00:26:53.151Z,3.30
2022-12-08T00:44:55.567Z,3.40
2022-12-08T00:59:45.112Z,3.60
2022-12-08T01:04:39.222Z,3.40
2022-12-08T01:07:06.025Z,3.40
2022-12-08T01:14:27.124Z,3.20
2022-12-08T01:16:53.967Z,3.10
2022-12-08T01:21:48.056Z,3.10
2022-12-08T01:24:18.130Z,3.10
2022-12-08T01:26:45.216Z,3.10
2022-12-08T01:29:12.385Z,3.10
2022-12-08T01:31:39.676Z,3.00
2022-12-08T01:34:07.531Z,2.90
2022-12-08T01:36:38.466Z,2.90
2022-12-08T01:39:08.585Z,2.90
2022-12-08T01:41:37.941Z,2.90
2022-12-08T01:44:10.856Z,2.90
2022-12-08T01:46:39.612Z,2.90
2022-12-08T01:49:29.477Z,3.10
2022-12-08T01:52:01.923Z,3.00
2022-12-08T01:54:33.591Z,2.90
2022-12-08T01:59:32.957Z,2.90
2022-12-08T02:04:26.955Z,3.00
2022-12-08T02:06:54.648Z,3.00
2022-12-08T02:09:21.811Z,2.80
2022-12-08T02:11:58.484Z,2.90
2022-12-08T02:14:25.561Z,2.80
2022-12-08T02:17:00.247Z,2.80
2022-12-08T02:19:48.476Z,2.80
2022-12-08T02:22:38.378Z,2.80
2022-12-08T02:25:24.845Z,2.80
2022-12-08T02:28:21.052Z,2.90
2022-12-08T02:30:58.258Z,3.00
2022-12-08T02:36:07.414Z,3.20
2022-12-08T02:38:59.966Z,3.10
2022-12-08T02:41:49.196Z,3.20
2022-12-08T02:46:53.522Z,3.20
2022-12-08T02:54:15.370Z,3.10
2022-12-08T02:56:44.906Z,3.20
2022-12-08T02:59:11.571Z,3.20
2022-12-08T03:01:59.047Z,3.20
2022-12-08T03:04:28.929Z,3.20
2022-12-08T03:07:23.941Z,3.10
2022-12-08T03:09:54.396Z,3.20
2022-12-08T03:12:49.716Z,3.20
2022-12-08T03:15:19.682Z,3.30
2022-12-08T03:17:52.621Z,3.20
2022-12-08T03:20:23.257Z,3.10
2022-12-08T03:22:52.563Z,3.10
2022-12-08T03:25:22.539Z,2.90
2022-12-08T03:27:50.800Z,3.10
2022-12-08T03:30:18.219Z,3.00
2022-12-08T03:32:53.108Z,3.00
2022-12-08T03:35:31.232Z,3.10
2022-12-08T03:38:16.389Z,3.10
2022-12-08T03:40:44.471Z,3.20
2022-12-08T03:45:38.343Z,3.00
2022-12-08T03:48:05.232Z,3.20
2022-12-08T03:50:31.992Z,3.30
2022-12-08T03:55:25.900Z,3.20
2022-12-08T04:00:19.934Z,3.30
2022-12-08T04:10:08.985Z,3.40
2022-12-08T04:12:35.722Z,3.30
2022-12-08T04:19:56.811Z,3.40
2022-12-08T04:22:23.514Z,3.40
2022-12-08T04:24:50.459Z,3.40
2022-12-08T04:29:44.312Z,3.30
2022-12-08T04:32:11.064Z,3.40
2022-12-08T04:34:37.831Z,3.50
2022-12-08T04:37:04.618Z,3.40
2022-12-08T04:41:58.580Z,3.20
2022-12-08T04:46:52.545Z,3.10
2022-12-08T04:51:46.551Z,2.90
2022-12-08T04:56:40.432Z,2.70
2022-12-08T05:04:01.664Z,2.70
2022-12-08T05:06:28.436Z,2.60
2022-12-08T05:08:55.165Z,2.60
2022-12-08T05:11:21.900Z,2.60
2022-12-08T05:16:16.152Z,2.80
2022-12-08T05:18:43.691Z,2.90
2022-12-08T05:23:37.842Z,2.90
2022-12-08T05:26:04.715Z,3.10
2022-12-08T05:31:09.913Z,3.00
2022-12-08T05:33:36.714Z,2.90
2022-12-08T05:36:03.637Z,3.00
2022-12-08T05:38:30.343Z,3.10
2022-12-08T05:43:24.273Z,3.10
2022-12-08T05:45:51.126Z,3.20
2022-12-08T05:50:49.238Z,3.30
2022-12-08T05:53:17.788Z,3.30
2022-12-08T05:55:44.826Z,3.20
2022-12-08T05:58:17.115Z,3.30
2022-12-08T06:00:45.025Z,3.30
2022-12-08T06:03:12.697Z,3.40
2022-12-08T06:05:41.061Z,3.20
2022-12-08T06:08:08.306Z,3.10
2022-12-08T06:17:56.657Z,3.30
2022-12-08T06:20:23.383Z,3.20
2022-12-08T06:25:17.448Z,3.20
2022-12-08T06:30:11.526Z,3.30
2022-12-08T06:35:06.121Z,3.40
2022-12-08T06:45:15.777Z,3.40
2022-12-08T06:47:42.522Z,3.40
2022-12-08T06:50:10.843Z,3.40
2022-12-08T06:52:47.333Z,3.40
2022-12-08T06:55:42.393Z,3.30
2022-12-08T07:20:33.975Z,3.30
2022-12-08T07:27:55.286Z,3.50
2022-12-08T07:30:28.129Z,3.50
2022-12-08T07:32:54.897Z,3.60
2022-12-08T07:35:23.021Z,3.40
2022-12-08T07:37:55.077Z,3.50
2022-12-08T07:40:21.987Z,3.50
2022-12-08T07:42:48.842Z,3.40
2022-12-08T07:45:15.606Z,3.50
2022-12-08T07:47:42.427Z,3.50
2022-12-08T07:50:09.310Z,3.60
2022-12-08T07:57:32.665Z,3.70
2022-12-08T08:00:04.023Z,3.70
2022-12-08T08:07:40.278Z,3.60
2022-12-08T08:10:08.087Z,3.40
2022-12-08T08:15:02.502Z,3.50
2022-12-08T08:17:30.172Z,3.40
2022-12-08T08:19:57.509Z,3.60
2022-12-08T08:22:28.085Z,3.50
2022-12-08T08:24:55.052Z,3.50
2022-12-08T08:27:22.563Z,3.50
2022-12-08T08:29:49.323Z,3.40
2022-12-08T08:32:16.031Z,3.50
2022-12-08T08:37:19.710Z,3.40
2022-12-08T08:39:46.542Z,3.50
2022-12-08T08:42:21.046Z,3.50
2022-12-08T08:44:47.920Z,3.60
2022-12-08T08:47:15.314Z,3.70
2022-12-08T08:49:42.257Z,3.70
2022-12-08T09:02:00.219Z,3.60
2022-12-08T09:04:27.126Z,3.70
2022-12-08T09:11:48.431Z,4.00
2022-12-08T09:14:15.565Z,4.00
2022-12-08T09:16:43.106Z,4.00
2022-12-08T09:19:10.494Z,4.00
2022-12-08T09:21:37.239Z,4.00
2022-12-08T09:26:31.181Z,4.10
2022-12-08T09:29:01.242Z,4.00
2022-12-08T09:31:31.149Z,4.00
2022-12-08T09:34:00.395Z,4.00
2022-12-08T09:36:27.378Z,3.90
2022-12-08T09:38:54.857Z,3.90
2022-12-08T09:41:49.854Z,3.90
2022-12-08T09:44:42.068Z,4.00
2022-12-08T09:47:55.236Z,4.10
2022-12-08T09:50:34.077Z,4.20
2022-12-08T09:53:12.773Z,4.20
2022-12-08T09:55:45.233Z,4.20
2022-12-08T09:58:25.408Z,4.20
2022-12-08T10:00:52.450Z,4.20
2022-12-08T10:03:21.354Z,4.20
2022-12-08T10:05:58.771Z,4.20
2022-12-08T10:08:34.778Z,4.20
2022-12-08T10:11:10.764Z,4.20
2022-12-08T10:13:59.850Z,4.10
2022-12-08T10:16:41.098Z,4.30
2022-12-08T10:19:24.718Z,4.30
2022-12-08T10:21:52.888Z,4.40
2022-12-08T10:24:26.140Z,4.30
2022-12-08T10:26:55.003Z,4.30
2022-12-08T10:29:21.765Z,4.30
2022-12-08T10:31:48.633Z,4.40
2022-12-08T10:34:23.201Z,4.40
2022-12-08T10:36:59.404Z,4.40
2022-12-08T10:39:45.619Z,4.50
2022-12-08T10:42:22.008Z,4.50
2022-12-08T10:44:57.732Z,4.40
2022-12-08T10:47:27.419Z,4.50
2022-12-08T10:50:13.030Z,4.50
2022-12-08T10:52:41.104Z,4.50
2022-12-08T10:55:18.866Z,4.50
2022-12-08T10:57:51.749Z,4.50
2022-12-08T11:00:27.159Z,4.60
2022-12-08T11:03:13.799Z,4.60
2022-12-08T11:05:42.162Z,4.60
2022-12-08T11:08:09.179Z,4.60
2022-12-08T11:10:43.833Z,4.60
2022-12-08T11:13:26.287Z,4.50
2022-12-08T11:15:56.993Z,4.40
2022-12-08T11:18:29.507Z,4.40
2022-12-08T11:21:10.153Z,4.40
2022-12-08T11:23:37.773Z,4.50
2022-12-08T11:26:28.280Z,4.40
2022-12-08T11:28:55.644Z,4.50
2022-12-08T11:31:33.227Z,4.50
2022-12-08T11:34:05.167Z,4.60
2022-12-08T11:36:39.723Z,4.60
2022-12-08T11:39:10.667Z,4.60
2022-12-08T11:41:40.929Z,4.50
2022-12-08T11:44:38.351Z,4.50
2022-12-08T11:47:20.448Z,4.40
2022-12-08T11:49:56.771Z,4.50
2022-12-08T11:52:51.107Z,4.50
2022-12-08T11:55:38.785Z,4.60
2022-12-08T11:58:23.976Z,4.70
2022-12-08T12:00:50.859Z,4.60
2022-12-08T12:03:29.670Z,4.60
2022-12-08T12:06:53.224Z,4.70
2022-12-08T12:09:40.489Z,4.60
2022-12-08T12:12:27.529Z,4.60
2022-12-08T12:15:04.712Z,4.50
2022-12-08T12:17:46.911Z,4.40
2022-12-08T12:20:35.216Z,4.60
2022-12-08T12:23:07.781Z,4.60
2022-12-08T12:25:36.895Z,4.50
2022-12-08T12:28:12.459Z,4.50
2022-12-08T12:31:05.483Z,4.50
2022-12-08T12:33:35.957Z,4.60
2022-12-08T12:36:16.539Z,4.50
2022-12-08T12:39:04.164Z,4.50
2022-12-08T12:41:46.535Z,4.50
2022-12-08T12:46:41.016Z,4.60
2022-12-08T12:49:39.381Z,4.60
2022-12-08T12:54:50.149Z,4.40
2022-12-08T12:57:25.541Z,4.40
2022-12-08T13:05:09.299Z,4.60
2022-12-08T13:07:49.719Z,4.70
2022-12-08T13:10:19.378Z,4.70
2022-12-08T13:13:01.142Z,4.60
2022-12-08T13:15:38.327Z,4.30
2022-12-08T13:18:07.496Z,4.40
2022-12-08T13:20:46.072Z,4.50
2022-12-08T13:23:31.636Z,4.40
2022-12-08T13:26:16.053Z,4.30
2022-12-08T13:29:01.471Z,4.40
2022-12-08T13:31:54.059Z,4.50
2022-12-08T13:34:41.289Z,4.40
2022-12-08T13:37:10.993Z,4.50
2022-12-08T13:39:40.645Z,4.40
2022-12-08T13:42:19.320Z,4.30
2022-12-08T13:45:24.073Z,4.30
2022-12-08T13:49:03.372Z,4.30
2022-12-08T13:57:07.120Z,4.40
2022-12-08T13:59:43.983Z,4.30
2022-12-08T14:02:20.961Z,4.30
2022-12-08T14:05:16.908Z,4.10
2022-12-08T14:07:35.146Z,4.10
2022-12-08T14:10:03.712Z,4.00
2022-12-08T14:12:31.492Z,4.10
2022-12-08T14:15:05.102Z,4.10
2022-12-08T14:17:33.054Z,4.00
2022-12-08T14:20:06.746Z,4.00
2022-12-08T14:22:36.044Z,4.00
2022-12-08T14:27:34.756Z,4.00
2022-12-08T14:30:15.932Z,3.80
2022-12-08T14:32:49.573Z,3.80
2022-12-08T14:35:25.216Z,3.80
2022-12-08T14:37:56.531Z,3.70
2022-12-08T14:40:23.800Z,4.00
2022-12-08T14:43:05.666Z,4.10
2022-12-08T14:45:35.701Z,4.00
2022-12-08T14:48:23.740Z,3.90
2022-12-08T14:51:07.892Z,3.80
2022-12-08T14:53:56.016Z,3.90
2022-12-08T14:59:10.100Z,3.90
2022-12-08T15:01:37.926Z,3.70
2022-12-08T15:04:14.140Z,3.60
2022-12-08T15:06:49.994Z,3.60
2022-12-08T15:09:28.980Z,3.40
2022-12-08T15:12:27.547Z,3.40
2022-12-08T15:15:16.535Z,3.30
2022-12-08T15:17:51.634Z,3.20
2022-12-08T15:20:43.922Z,3.20
2022-12-08T15:23:20.048Z,3.30
2022-12-08T15:25:46.959Z,3.20
2022-12-08T15:28:15.685Z,3.40
2022-12-08T15:35:40.676Z,3.20
2022-12-08T15:38:20.613Z,3.10
2022-12-08T15:40:47.486Z,3.20
2022-12-08T15:43:14.604Z,3.20
2022-12-08T15:45:51.804Z,3.20
2022-12-08T15:48:27.451Z,3.10
2022-12-08T15:50:55.359Z,3.00
2022-12-08T15:53:22.490Z,3.00
2022-12-08T15:56:19.089Z,3.20
2022-12-08T15:58:55.109Z,3.10
2022-12-08T16:01:22.859Z,3.10
2022-12-08T16:09:40.270Z,2.80
2022-12-08T16:15:51.744Z,2.80
2022-12-08T16:18:24.013Z,3.00
2022-12-08T16:21:16.628Z,2.80
2022-12-08T16:23:45.653Z,2.90
2022-12-08T16:27:13.905Z,2.80
2022-12-08T16:29:11.147Z,2.80
2022-12-08T16:36:32.377Z,2.70
2022-12-08T16:46:39.795Z,2.70
2022-12-08T16:49:08.872Z,2.70
2022-12-08T16:51:35.677Z,2.70
2022-12-08T16:54:07.184Z,2.60
2022-12-08T16:59:02.203Z,2.60
2022-12-08T17:06:43.855Z,2.50
2022-12-08T17:11:42.987Z,2.50
2022-12-08T17:14:11.137Z,2.60
2022-12-08T17:16:38.333Z,2.60
2022-12-08T17:23:59.638Z,2.50
2022-12-08T17:26:26.400Z,2.60
2022-12-08T17:29:01.527Z,2.70
2022-12-08T17:31:30.857Z,2.80
2022-12-08T17:34:00.203Z,2.80
2022-12-08T17:36:27.223Z,2.80
2022-12-08T17:38:54.631Z,2.80
2022-12-08T17:46:19.948Z,2.70
2022-12-08T17:48:47.374Z,2.60
2022-12-08T17:51:14.613Z,2.70
2022-12-08T17:53:41.752Z,2.70
2022-12-08T17:56:19.296Z,2.70
2022-12-08T17:58:51.289Z,2.70
2022-12-08T18:01:21.519Z,2.50
2022-12-08T18:03:48.408Z,2.50
2022-12-08T18:11:14.258Z,2.60
2022-12-08T18:13:41.144Z,2.40
2022-12-08T18:16:08.333Z,2.40
2022-12-08T18:18:35.120Z,2.30
2022-12-08T18:23:29.206Z,2.10
2022-12-08T18:28:24.028Z,2.20
2022-12-08T18:30:51.150Z,2.30
2022-12-08T18:40:39.726Z,2.20
2022-12-08T18:43:06.654Z,2.10
2022-12-08T18:45:33.901Z,2.00
2022-12-08T18:50:27.869Z,2.10
2022-12-08T18:52:54.707Z,2.00
2022-12-08T18:55:21.522Z,2.10
2022-12-08T18:57:48.437Z,2.10
2022-12-08T19:00:17.288Z,2.20
2022-12-08T19:02:44.869Z,2.30
2022-12-08T19:05:13.653Z,2.30
2022-12-08T19:10:10.528Z,2.40
2022-12-08T19:12:37.619Z,2.40
2022-12-08T19:15:05.285Z,2.40
2022-12-08T19:22:26.971Z,2.60
2022-12-08T19:34:42.847Z,2.40
2022-12-08T19:37:12.567Z,2.40
2022-12-08T19:39:58.655Z,2.50
2022-12-08T19:45:17.583Z,2.40
2022-12-08T19:47:44.583Z,2.20
2022-12-08T19:50:32.664Z,2.10
2022-12-08T19:53:00.156Z,2.10
2022-12-08T19:55:27.230Z,2.10
2022-12-08T19:57:54.621Z,2.10
2022-12-08T20:00:21.539Z,2.10
2022-12-08T20:02:48.915Z,2.10
2022-12-08T20:07:43.191Z,2.20
2022-12-08T20:10:19.645Z,2.20
2022-12-08T20:15:14.848Z,2.00
2022-12-08T20:17:42.969Z,1.90
2022-12-08T20:20:10.516Z,1.90
2022-12-08T20:25:05.040Z,1.70
2022-12-08T20:29:58.909Z,1.80
2022-12-08T20:37:20.196Z,1.70
2022-12-08T20:39:46.981Z,1.70
2022-12-08T20:42:13.981Z,1.70
2022-12-08T20:47:13.067Z,1.60
2022-12-08T20:49:39.998Z,1.70
2022-12-08T20:54:35.230Z,1.10
2022-12-08T20:57:02.145Z,1.30
2022-12-08T21:01:56.458Z,1.20
2022-12-08T21:04:24.001Z,1.10
2022-12-08T21:09:18.363Z,1.40
2022-12-08T21:11:45.683Z,1.40
2022-12-08T21:14:12.682Z,1.20
2022-12-08T21:19:06.995Z,1.30
2022-12-08T21:26:29.117Z,1.50
2022-12-08T21:28:58.924Z,1.50
2022-12-08T21:38:50.094Z,1.50
2022-12-08T21:41:40.834Z,1.70
2022-12-08T21:44:10.339Z,1.90
2022-12-08T21:49:05.104Z,1.90
2022-12-08T21:51:33.890Z,1.90
2022-12-08T21:58:55.577Z,1.70
2022-12-08T22:03:50.092Z,1.50
2022-12-08T22:06:17.046Z,1.70
2022-12-08T22:08:44.015Z,1.80
2022-12-08T22:11:11.752Z,1.80
2022-12-08T22:13:40.881Z,1.80
2022-12-08T22:16:10.572Z,1.50
2022-12-08T22:18:37.877Z,1.50
2022-12-08T22:21:12.411Z,1.50
2022-12-08T22:23:39.301Z,1.60
2022-12-08T22:26:07.093Z,1.60
2022-12-08T22:28:36.630Z,1.10
2022-12-08T22:31:16.670Z,1.10
2022-12-08T22:36:23.346Z,1.20
2022-12-08T22:38:50.994Z,1.20
2022-12-08T22:41:18.487Z,1.30
2022-12-08T22:43:46.271Z,1.40
2022-12-08T22:46:24.338Z,1.40
2022-12-08T22:48:52.588Z,1.30
2022-12-08T22:51:19.958Z,1.20
2022-12-08T22:53:47.544Z,1.10
2022-12-08T22:56:16.055Z,1.00
2022-12-08T22:58:44.166Z,1.00
2022-12-08T23:01:26.230Z,1.00
2022-12-08T23:03:53.517Z,1.00
2022-12-08T23:06:20.501Z,0.90
2022-12-08T23:08:47.457Z,0.90
2022-12-08T23:16:11.217Z,0.70
2022-12-08T23:18:41.644Z,0.70
2022-12-08T23:21:11.278Z,0.70
2022-12-08T23:26:14.713Z,0.80
2022-12-08T23:28:41.578Z,0.80
2022-12-08T23:31:09.334Z,0.80
2022-12-08T23:33:36.350Z,0.80
2022-12-08T23:36:03.161Z,0.80
2022-12-08T23:38:30.047Z,0.90
2022-12-08T23:41:02.077Z,1.00
2022-12-08T23:48:23.783Z,1.10
2022-12-08T23:50:50.687Z,1.10
2022-12-08T23:53:17.525Z,1.20
2022-12-08T23:55:44.451Z,1.20
2022-12-08T23:58:11.964Z,1.30
